Time;durP1;ratioP1;P1;durP2;ratioP2;P2;SDS_P1;SDS_P2;PMS_P1;PMS_P2;Temp;Humidity;BMP_temperature;BMP_pressure;BME280_temperature;BME280_humidity;BME280_pressure;Samples;Min_cycle;Max_cycle;Signal;HPM_P1;HPM_P2
2023/05/16 00:00:25;;;;;;;9.07;6.82;;;9.70;99.90;;;;;;5000476;28;20082;-80
2023/05/16 00:03:11;;;;;;;9.88;5.65;;;9.70;99.90;;;;;;5016952;28;20002;-79
2023/05/16 00:05:44;;;;;;;7.35;6.22;;;9.70;99.90;;;;;;5016972;28;20022;-79
2023/05/16 00:08:10;;;;;;;9.30;6.55;;;9.70;99.90;;;;;;5000492;28;20018;-80
2023/05/16 00:10:36;;;;;;;8.93;5.95;;;;;;;;;;5022705;23;20054;-79
2023/05/16 00:13:02;;;;;;;9.98;6.50;;;9.60;99.90;;;;;;5000144;28;20095;-78
2023/05/16 00:15:48;;;;;;;9.23;6.03;;;9.50;99.90;;;;;;5000163;28;20491;-77
2023/05/16 00:18:15;;;;;;;7.05;5.50;;;9.50;99.90;;;;;;4998844;28;20042;-78
2023/05/16 00:20:41;;;;;;;8.70;6.25;;;;;;;;;;5016781;28;20013;-78
2023/05/16 00:23:31;;;;;;;7.18;5.50;;;9.50;99.90;;;;;;4999952;28;20022;-78
2023/05/16 00:25:56;;;;;;;8.85;5.82;;;9.40;99.90;;;;;;5017296;28;20041;-78
2023/05/16 00:28:22;;;;;;;7.97;5.60;;;;;;;;;;4993112;23;20047;-79
2023/05/16 00:30:48;;;;;;;7.95;6.10;;;9.40;99.90;;;;;;4961506;28;20087;-80
2023/05/16 00:33:14;;;;;;;8.45;6.15;;;9.40;99.90;;;;;;4976907;28;20035;-80
2023/05/16 00:35:40;;;;;;;8.68;5.93;;;;;;;;;;4990752;23;20061;-79
2023/05/16 00:38:06;;;;;;;8.95;6.50;;;9.40;99.90;;;;;;4999811;28;20025;-79
2023/05/16 00:40:31;;;;;;;7.88;5.68;;;9.30;99.90;;;;;;5000472;28;20030;-79
2023/05/16 00:42:57;;;;;;;8.80;5.25;;;9.30;99.90;;;;;;5017348;28;20014;-80
2023/05/16 00:45:23;;;;;;;11.55;6.50;;;9.30;99.90;;;;;;5016899;28;20096;-80
2023/05/16 00:47:50;;;;;;;9.27;6.47;;;9.30;99.90;;;;;;5000417;28;20022;-80
2023/05/16 00:50:16;;;;;;;14.05;6.28;;;9.50;99.90;;;;;;4999727;28;20407;-79
2023/05/16 00:52:42;;;;;;;11.07;6.20;;;9.50;99.90;;;;;;4999992;28;20042;-81
2023/05/16 00:55:12;;;;;;;8.18;5.50;;;;;;;;;;5016016;28;20090;-80
2023/05/16 00:57:38;;;;;;;8.95;5.22;;;9.60;99.90;;;;;;5000819;28;20026;-79
2023/05/16 01:00:08;;;;;;;8.50;5.85;;;9.70;99.90;;;;;;5017194;28;20034;-79
2023/05/16 01:02:36;;;;;;;8.48;6.38;;;9.60;99.90;;;;;;5017528;28;20053;-81
2023/05/16 01:05:04;;;;;;;8.30;6.07;;;9.60;99.90;;;;;;5000099;28;20085;-80
2023/05/16 01:07:30;;;;;;;9.02;6.53;;;9.60;99.90;;;;;;5000319;28;20011;-78
2023/05/16 01:09:56;;;;;;;7.90;6.45;;;9.60;99.90;;;;;;4992933;28;20034;-80
2023/05/16 01:12:55;;;;;;;10.57;6.75;;;9.60;99.90;;;;;;5000797;28;20026;-79
2023/05/16 01:15:34;;;;;;;7.75;6.40;;;9.60;99.90;;;;;;5017464;28;20023;-79
2023/05/16 01:18:11;;;;;;;8.80;6.13;;;9.50;99.90;;;;;;5000289;28;20030;-80
2023/05/16 01:20:54;;;;;;;7.13;5.95;;;9.50;99.90;;;;;;5000481;28;20264;-78
2023/05/16 01:23:38;;;;;;;8.13;5.25;;;9.50;99.90;;;;;;5000879;28;20017;-78
2023/05/16 01:26:13;;;;;;;13.00;7.43;;;9.50;99.90;;;;;;5000647;28;20046;-78
2023/05/16 01:28:39;;;;;;;9.70;6.90;;;;;;;;;;5923499;23;20032;-80
2023/05/16 01:33:40;;;;;;;13.93;7.32;;;9.50;99.90;;;;;;5012770;23;20042;-80
2023/05/16 01:36:19;;;;;;;11.80;7.63;;;9.70;99.90;;;;;;4949748;23;20048;-78
2023/05/16 01:39:00;;;;;;;11.05;6.65;;;9.80;99.90;;;;;;4942851;29;20012;-78
2023/05/16 01:41:50;;;;;;;10.73;6.68;;;9.80;99.90;;;;;;4942786;29;20012;-79
2023/05/16 01:44:22;;;;;;;10.10;6.72;;;9.80;99.90;;;;;;4944844;29;20060;-78
2023/05/16 01:46:51;;;;;;;10.68;7.32;;;9.80;99.90;;;;;;4962548;29;20028;-79
2023/05/16 01:49:30;;;;;;;13.55;7.35;;;9.80;99.90;;;;;;4962361;29;20018;-78
2023/05/16 01:52:09;;;;;;;8.63;5.78;;;9.90;99.90;;;;;;4943425;29;20027;-78
2023/05/16 01:54:37;;;;;;;10.18;6.75;;;9.80;99.90;;;;;;4946589;29;20012;-78
2023/05/16 01:57:16;;;;;;;8.13;5.68;;;9.80;99.90;;;;;;4944620;29;20508;-78
2023/05/16 01:59:54;;;;;;;12.63;6.97;;;9.80;99.90;;;;;;4931195;29;20019;-79
2023/05/16 02:02:32;;;;;;;;;;;9.80;99.90;;;;;;4949705;29;20036;-79
2023/05/16 02:04:57;;;;;;;11.73;5.70;;;9.80;99.90;;;;;;4938259;29;20376;-78
2023/05/16 02:07:23;;;;;;;11.68;5.97;;;9.80;99.90;;;;;;4940361;29;20028;-78
2023/05/16 02:09:49;;;;;;;10.05;6.82;;;9.80;99.90;;;;;;4942345;29;20028;-78
2023/05/16 02:12:18;;;;;;;12.32;7.35;;;9.80;99.90;;;;;;4941958;29;20046;-77
2023/05/16 02:14:44;;;;;;;11.77;6.13;;;9.80;99.90;;;;;;4943798;29;20035;-78
2023/05/16 02:17:09;;;;;;;11.45;6.80;;;9.70;99.90;;;;;;4940269;29;20023;-79
2023/05/16 02:19:55;;;;;;;9.85;7.32;;;9.70;99.90;;;;;;4961909;28;20024;-78
2023/05/16 02:22:20;;;;;;;9.82;6.70;;;9.60;99.90;;;;;;4945818;29;20083;-79
2023/05/16 02:24:46;;;;;;;10.30;6.45;;;9.60;99.90;;;;;;4923494;29;20059;-78
2023/05/16 02:27:13;;;;;;;13.57;8.45;;;9.60;99.90;;;;;;4923124;29;20047;-78
2023/05/16 02:29:38;;;;;;;13.75;8.20;;;9.60;99.90;;;;;;4936806;29;20032;-77
2023/05/16 02:32:04;;;;;;;12.32;7.78;;;9.50;99.90;;;;;;4994644;23;20061;-78
2023/05/16 02:34:30;;;;;;;12.93;7.38;;;;;;;;;;5042995;23;20053;-80
2023/05/16 02:36:56;;;;;;;11.20;7.13;;;9.60;99.90;;;;;;5151914;23;20038;-78
2023/05/16 02:39:22;;;;;;;11.43;6.20;;;;;;;;;;5027645;23;20026;-78
2023/05/16 02:41:48;;;;;;;11.27;6.72;;;9.60;99.90;;;;;;5020428;28;20014;-77
2023/05/16 02:44:13;;;;;;;12.77;7.90;;;9.60;99.90;;;;;;5002736;28;20094;-78
2023/05/16 02:46:39;;;;;;;10.50;7.20;;;9.60;99.90;;;;;;5019871;28;20023;-78
2023/05/16 02:49:05;;;;;;;11.15;7.53;;;9.60;99.90;;;;;;4996583;28;20030;-77
2023/05/16 02:51:30;;;;;;;10.90;7.60;;;9.70;99.90;;;;;;5002145;28;20015;-79
2023/05/16 02:53:58;;;;;;;10.50;6.47;;;9.70;99.90;;;;;;5019614;28;20018;-78
2023/05/16 02:56:25;;;;;;;10.70;8.00;;;9.60;99.90;;;;;;5002578;28;20033;-78
2023/05/16 02:58:53;;;;;;;12.70;7.93;;;9.60;99.90;;;;;;5002919;28;20030;-78
2023/05/16 03:01:18;;;;;;;11.73;7.82;;;9.70;99.90;;;;;;5002648;28;20045;-78
2023/05/16 03:03:44;;;;;;;12.98;8.93;;;9.70;99.90;;;;;;5019292;28;20014;-78
2023/05/16 03:06:10;;;;;;;13.23;7.15;;;9.70;99.90;;;;;;5002776;28;20046;-78
2023/05/16 03:08:36;;;;;;;17.92;10.13;;;9.80;99.90;;;;;;5003041;28;20106;-78
2023/05/16 03:11:02;;;;;;;13.35;8.77;;;;;;;;;;5002982;28;20045;-78
2023/05/16 03:13:33;;;;;;;22.35;11.88;;;10.00;99.90;;;;;;5002805;28;20007;-78
2023/05/16 03:16:29;;;;;;;27.60;14.25;;;10.00;99.90;;;;;;5019787;28;20079;-79
2023/05/16 03:18:55;;;;;;;22.67;14.77;;;10.20;99.90;;;;;;5002599;28;20033;-78
2023/05/16 03:21:21;;;;;;;28.60;14.55;;;10.20;99.90;;;;;;5002840;28;20034;-79
2023/05/16 03:23:47;;;;;;;27.23;14.50;;;10.30;99.90;;;;;;4999703;28;20026;-77
2023/05/16 03:26:16;;;;;;;26.13;13.15;;;10.30;99.90;;;;;;4998695;28;20045;-78
2023/05/16 03:29:01;;;;;;;23.38;13.13;;;10.40;99.90;;;;;;5019081;28;20069;-79
2023/05/16 03:31:27;;;;;;;28.80;15.63;;;10.40;99.90;;;;;;5001807;28;20027;-78
2023/05/16 03:33:53;;;;;;;28.33;14.82;;;10.40;99.90;;;;;;5002048;28;20034;-80
2023/05/16 03:36:21;;;;;;;24.20;14.35;;;10.40;99.90;;;;;;5001650;28;20014;-80
2023/05/16 03:38:46;;;;;;;26.80;14.63;;;10.40;99.90;;;;;;5001618;28;20122;-80
2023/05/16 03:41:12;;;;;;;24.13;13.20;;;10.40;99.90;;;;;;5018378;28;20011;-80
2023/05/16 03:43:38;;;;;;;27.63;14.38;;;10.40;99.90;;;;;;4989287;28;20121;-78
2023/05/16 03:46:03;;;;;;;22.70;13.23;;;10.40;99.90;;;;;;4975226;28;20042;-79
2023/05/16 03:48:29;;;;;;;23.67;13.73;;;10.40;99.90;;;;;;5003417;28;20033;-78
2023/05/16 03:50:54;;;;;;;29.83;14.68;;;10.30;99.90;;;;;;4996422;28;20356;-79
2023/05/16 03:53:20;;;;;;;23.77;14.55;;;10.30;99.90;;;;;;5001365;28;20544;-80
2023/05/16 03:55:46;;;;;;;25.45;12.32;;;10.30;99.90;;;;;;4996590;28;20034;-79
2023/05/16 03:58:11;;;;;;;25.85;13.52;;;10.30;99.90;;;;;;4990256;28;20032;-79
2023/05/16 04:00:37;;;;;;;27.73;12.90;;;10.30;99.90;;;;;;5000875;28;20087;-79
2023/05/16 04:03:03;;;;;;;24.48;13.90;;;10.30;99.90;;;;;;5000253;28;20067;-79
2023/05/16 04:05:29;;;;;;;21.60;14.10;;;10.30;99.90;;;;;;4998373;28;20042;-77
2023/05/16 04:07:54;;;;;;;24.40;14.27;;;10.30;99.90;;;;;;4980703;28;20030;-78
2023/05/16 04:10:20;;;;;;;25.10;14.35;;;10.30;99.90;;;;;;4992498;28;20472;-79
2023/05/16 04:12:46;;;;;;;24.13;14.48;;;10.20;99.90;;;;;;4976174;28;20022;-78
2023/05/16 04:15:12;;;;;;;28.20;14.95;;;10.30;99.90;;;;;;4975370;28;20039;-79
2023/05/16 04:17:37;;;;;;;28.35;15.38;;;10.30;99.90;;;;;;4975482;28;20030;-79
2023/05/16 04:20:03;;;;;;;27.23;15.38;;;10.20;99.90;;;;;;4976293;28;20100;-79
2023/05/16 04:22:30;;;;;;;23.10;13.40;;;10.30;99.90;;;;;;4979630;28;20070;-79
2023/05/16 04:24:56;;;;;;;27.83;16.25;;;10.30;99.90;;;;;;4978081;28;20034;-79
2023/05/16 04:27:22;;;;;;;30.00;15.98;;;10.30;99.90;;;;;;4978698;28;20046;-79
2023/05/16 04:29:48;;;;;;;33.05;15.73;;;10.30;99.90;;;;;;4978513;28;20518;-79
2023/05/16 04:32:14;;;;;;;28.83;15.93;;;10.30;99.90;;;;;;4966178;28;20041;-80
2023/05/16 04:34:40;;;;;;;29.85;16.60;;;10.30;99.90;;;;;;5000057;28;20022;-80
2023/05/16 04:37:09;;;;;;;27.80;14.75;;;10.30;99.90;;;;;;5017005;28;20049;-81
2023/05/16 04:39:43;;;;;;;32.53;16.88;;;10.30;99.90;;;;;;4999211;28;20075;-80
2023/05/16 04:42:28;;;;;;;34.22;17.15;;;10.30;99.90;;;;;;5016274;28;20112;-80
2023/05/16 04:44:55;;;;;;;37.78;17.63;;;10.30;99.90;;;;;;5017098;28;20030;-80
2023/05/16 04:47:21;;;;;;;32.28;17.98;;;;;;;;;;5278145;23;20012;-78
2023/05/16 04:49:46;;;;;;;32.53;20.67;;;10.30;99.90;;;;;;4999942;28;20041;-80
2023/05/16 04:52:12;;;;;;;36.78;18.40;;;10.30;99.90;;;;;;4999097;28;20026;-81
2023/05/16 04:54:38;;;;;;;35.65;19.23;;;10.30;99.90;;;;;;5000734;28;20078;-80
2023/05/16 04:57:04;;;;;;;35.45;19.08;;;10.30;99.90;;;;;;5017402;28;20033;-78
2023/05/16 04:59:30;;;;;;;32.95;19.10;;;10.30;99.90;;;;;;4999925;28;20026;-80
2023/05/16 05:01:55;;;;;;;46.78;20.63;;;10.30;99.90;;;;;;5000219;28;20102;-81
2023/05/16 05:04:21;;;;;;;43.05;20.83;;;10.30;99.90;;;;;;4999496;28;20010;-80
2023/05/16 05:06:47;;;;;;;44.38;19.45;;;10.30;99.90;;;;;;4986359;28;20049;-79
2023/05/16 05:09:13;;;;;;;34.83;18.77;;;10.30;99.90;;;;;;4975057;28;20494;-79
2023/05/16 05:11:38;;;;;;;41.40;19.48;;;10.30;99.90;;;;;;4991162;28;20475;-78
2023/05/16 05:14:04;;;;;;;40.72;19.35;;;10.30;99.90;;;;;;4987171;28;20053;-79
2023/05/16 05:16:42;;;;;;;39.72;20.15;;;10.20;99.90;;;;;;4971261;28;20039;-78
2023/05/16 05:19:11;;;;;;;41.83;19.83;;;10.20;99.90;;;;;;4992997;28;20062;-79
2023/05/16 05:21:36;;;;;;;43.05;19.73;;;10.20;99.90;;;;;;5013784;28;20026;-80
2023/05/16 05:24:03;;;;;;;40.22;19.23;;;10.20;99.90;;;;;;4996589;28;20030;-81
2023/05/16 05:26:28;;;;;;;34.67;18.33;;;10.20;99.90;;;;;;5001635;28;20118;-80
2023/05/16 05:28:54;;;;;;;38.50;17.70;;;10.20;99.90;;;;;;5002378;28;20023;-82
2023/05/16 05:31:20;;;;;;;33.85;18.20;;;;;;;;;;4991281;28;20031;-79
2023/05/16 05:33:46;;;;;;;32.13;17.52;;;10.20;99.90;;;;;;5001709;28;20098;-81
2023/05/16 05:36:12;;;;;;;35.40;18.90;;;10.20;99.90;;;;;;5004100;28;20033;-80
2023/05/16 05:38:37;;;;;;;38.75;18.13;;;10.20;99.90;;;;;;5011712;28;20026;-81
2023/05/16 05:41:04;;;;;;;36.58;17.60;;;10.20;99.90;;;;;;5000850;28;20007;-80
2023/05/16 05:43:30;;;;;;;36.50;16.85;;;10.20;99.90;;;;;;5001592;28;20029;-81
2023/05/16 05:45:55;;;;;;;32.30;17.27;;;10.20;99.90;;;;;;5002997;28;20046;-80
2023/05/16 05:48:21;;;;;;;31.05;17.23;;;10.20;99.90;;;;;;5003235;28;20034;-79
2023/05/16 05:50:48;;;;;;;31.23;18.27;;;10.10;99.90;;;;;;4990019;28;20032;-77
2023/05/16 05:53:13;;;;;;;27.73;14.27;;;10.10;99.90;;;;;;5003622;28;20049;-78
2023/05/16 05:55:45;;;;;;;25.40;13.70;;;10.10;99.90;;;;;;5003060;28;20505;-80
2023/05/16 05:58:29;;;;;;;31.33;16.67;;;10.10;99.90;;;;;;5019404;28;20022;-79
2023/05/16 06:01:16;;;;;;;23.93;13.40;;;10.10;99.90;;;;;;4996908;28;20031;-78
2023/05/16 06:04:03;;;;;;;22.42;13.00;;;10.10;99.90;;;;;;5016386;28;20017;-76
2023/05/16 06:06:28;;;;;;;20.85;11.85;;;10.00;99.90;;;;;;5002736;28;20045;-77
2023/05/16 06:08:54;;;;;;;21.42;10.88;;;10.00;99.90;;;;;;5019707;28;20030;-78
2023/05/16 06:11:20;;;;;;;18.52;10.80;;;9.90;99.90;;;;;;5020317;28;20041;-79
2023/05/16 06:13:46;;;;;;;22.85;12.52;;;;;;;;;;4995532;28;20192;-79
2023/05/16 06:16:12;;;;;;;20.55;10.45;;;9.90;99.90;;;;;;4996911;28;20022;-78
2023/05/16 06:18:38;;;;;;;19.05;11.43;;;9.90;99.90;;;;;;4977051;28;20027;-78
2023/05/16 06:21:05;;;;;;;18.90;11.93;;;9.90;99.90;;;;;;4991895;28;20038;-78
2023/05/16 06:23:31;;;;;;;22.08;10.85;;;10.00;99.90;;;;;;4974274;28;20442;-78
2023/05/16 06:25:57;;;;;;;20.00;11.32;;;;;;;;;;4994263;28;20042;-81
2023/05/16 06:28:24;;;;;;;18.67;11.27;;;10.00;99.90;;;;;;4983025;28;20423;-79
2023/05/16 06:30:50;;;;;;;17.77;10.23;;;9.90;99.90;;;;;;4982063;28;20433;-78
2023/05/16 06:33:17;;;;;;;16.98;10.88;;;10.00;99.90;;;;;;4977655;28;20369;-80
2023/05/16 06:35:42;;;;;;;20.10;11.75;;;10.00;99.90;;;;;;4980274;28;20436;-77
2023/05/16 06:38:08;;;;;;;19.85;11.23;;;10.00;99.90;;;;;;4991903;28;20050;-78
2023/05/16 06:40:33;;;;;;;20.08;11.07;;;10.00;99.90;;;;;;4990537;28;20062;-78
2023/05/16 06:42:59;;;;;;;23.88;12.73;;;10.00;99.90;;;;;;4974734;28;20080;-78
2023/05/16 06:45:25;;;;;;;22.98;11.98;;;10.00;99.90;;;;;;4994786;28;20212;-79
2023/05/16 06:47:51;;;;;;;18.23;11.88;;;10.00;99.90;;;;;;4981250;28;20054;-79
2023/05/16 06:50:16;;;;;;;21.20;12.57;;;10.00;99.90;;;;;;4987436;28;20026;-80
2023/05/16 06:52:42;;;;;;;21.17;11.63;;;10.00;99.90;;;;;;5000046;28;20049;-81
2023/05/16 06:55:08;;;;;;;21.80;12.15;;;10.00;99.90;;;;;;5014404;28;20079;-81
2023/05/16 06:57:34;;;;;;;27.00;13.45;;;10.10;99.90;;;;;;4985929;28;20487;-79
2023/05/16 06:59:59;;;;;;;19.30;12.52;;;10.10;99.90;;;;;;4985301;28;20026;-79
2023/05/16 07:02:38;;;;;;;24.92;15.25;;;10.10;99.90;;;;;;4999171;28;20070;-82
2023/05/16 07:05:05;;;;;;;27.15;13.32;;;10.10;99.90;;;;;;4999691;28;20034;-79
2023/05/16 07:07:50;;;;;;;25.98;12.57;;;10.00;99.90;;;;;;4997685;28;20030;-81
2023/05/16 07:10:16;;;;;;;26.38;13.98;;;10.10;99.90;;;;;;4985471;28;20602;-79
2023/05/16 07:12:42;;;;;;;26.30;14.68;;;10.00;99.90;;;;;;4974897;28;20117;-77
2023/05/16 07:15:08;;;;;;;27.20;14.52;;;10.00;99.90;;;;;;4975061;28;20035;-78
2023/05/16 07:17:34;;;;;;;32.65;15.25;;;10.00;99.90;;;;;;4974929;28;20069;-79
2023/05/16 07:20:00;;;;;;;31.40;16.42;;;10.00;99.90;;;;;;4992019;28;20064;-78
2023/05/16 07:22:25;;;;;;;32.58;17.05;;;10.00;99.90;;;;;;4974899;28;20502;-79
2023/05/16 07:24:53;;;;;;;32.25;17.73;;;10.10;99.90;;;;;;4976256;28;20034;-79
2023/05/16 07:27:19;;;;;;;36.20;18.05;;;10.00;99.90;;;;;;4993299;28;20049;-79
2023/05/16 07:29:45;;;;;;;33.40;16.95;;;10.10;99.90;;;;;;4975166;28;20027;-79
2023/05/16 07:32:10;;;;;;;34.88;18.33;;;10.20;99.90;;;;;;4976881;28;20038;-79
2023/05/16 07:34:36;;;;;;;36.60;19.05;;;10.20;99.90;;;;;;4976216;28;20049;-79
2023/05/16 07:37:02;;;;;;;39.53;19.50;;;10.20;99.90;;;;;;4975916;28;20034;-79
2023/05/16 07:39:27;;;;;;;37.83;19.27;;;10.10;99.90;;;;;;4990975;28;20022;-78
2023/05/16 07:41:53;;;;;;;35.40;17.13;;;10.20;99.90;;;;;;4973441;28;20563;-79
2023/05/16 07:44:19;;;;;;;34.25;18.23;;;10.10;99.90;;;;;;4974150;28;20026;-78
2023/05/16 07:46:44;;;;;;;35.42;18.60;;;10.20;99.90;;;;;;4973743;28;20491;-79
2023/05/16 07:49:10;;;;;;;32.70;17.88;;;;;;;;;;5001988;28;20077;-78
2023/05/16 07:51:36;;;;;;;34.35;14.88;;;10.20;99.90;;;;;;5001840;28;20023;-80
2023/05/16 07:54:10;;;;;;;39.13;16.80;;;10.20;99.90;;;;;;5002514;28;20014;-79
2023/05/16 07:56:36;;;;;;;32.55;16.42;;;10.30;99.90;;;;;;5002429;28;20062;-78
2023/05/16 07:59:01;;;;;;;35.80;16.63;;;10.30;99.90;;;;;;5018798;28;20033;-79
2023/05/16 08:01:27;;;;;;;28.08;15.45;;;10.30;99.90;;;;;;5018848;28;20015;-79
2023/05/16 08:03:53;;;;;;;31.27;15.35;;;10.30;99.90;;;;;;5001356;28;20098;-80
2023/05/16 08:06:18;;;;;;;27.40;14.68;;;10.20;99.90;;;;;;5001268;28;20027;-80
2023/05/16 08:08:44;;;;;;;30.80;15.50;;;10.20;99.90;;;;;;5001967;28;20130;-78
2023/05/16 08:11:10;;;;;;;25.50;13.70;;;10.20;99.90;;;;;;5002333;28;20038;-81
2023/05/16 08:13:35;;;;;;;27.08;15.73;;;10.20;99.90;;;;;;5019284;28;20030;-79
2023/05/16 08:16:01;;;;;;;27.42;15.20;;;10.20;99.90;;;;;;5018780;28;20025;-81
2023/05/16 08:18:27;;;;;;;25.20;12.65;;;10.30;99.90;;;;;;5002288;28;20122;-81
2023/05/16 08:24:25;;;;;;;25.15;13.95;;;10.30;99.90;;;;;;5014435;28;20061;-81
2023/05/16 08:26:50;;;;;;;24.00;14.10;;;11.00;99.90;;;;;;5001074;28;20050;-79
2023/05/16 08:29:16;;;;;;;21.88;12.55;;;10.30;99.90;;;;;;4999137;28;20511;-79
2023/05/16 08:31:48;;;;;;;23.08;13.02;;;10.30;99.90;;;;;;5001956;28;20014;-78
2023/05/16 08:34:37;;;;;;;38.40;14.85;;;10.40;99.90;;;;;;5017766;28;20030;-80
2023/05/16 08:37:02;;;;;;;23.50;12.65;;;10.30;99.90;;;;;;4999944;28;20053;-79
2023/05/16 08:39:29;;;;;;;26.05;13.40;;;10.30;99.90;;;;;;4998932;28;20388;-81
2023/05/16 08:41:55;;;;;;;31.20;16.02;;;10.20;99.90;;;;;;4999925;28;20019;-81
2023/05/16 08:44:21;;;;;;;32.80;14.77;;;10.10;99.90;;;;;;5018507;28;20013;-79
2023/05/16 08:46:51;;;;;;;33.03;13.98;;;10.20;99.90;;;;;;5001326;28;20022;-78
2023/05/16 08:49:17;;;;;;;38.80;15.43;;;10.10;99.90;;;;;;5018542;28;20038;-80
2023/05/16 08:51:46;;;;;;;48.63;16.30;;;10.00;99.90;;;;;;5001696;28;20026;-80
2023/05/16 08:54:13;;;;;;;31.73;15.10;;;10.00;99.90;;;;;;5021259;28;20014;-80
2023/05/16 08:56:41;;;;;;;31.27;15.10;;;10.00;99.90;;;;;;5021805;28;20015;-81
2023/05/16 08:59:06;;;;;;;31.73;13.88;;;10.00;99.90;;;;;;5004397;28;20031;-79
2023/05/16 09:01:32;;;;;;;31.88;16.35;;;10.10;99.90;;;;;;5000954;28;20029;-79
2023/05/16 09:03:59;;;;;;;29.88;15.95;;;10.10;99.90;;;;;;5012482;28;20010;-80
2023/05/16 09:06:25;;;;;;;27.13;14.27;;;10.10;99.90;;;;;;5002821;28;20026;-78
2023/05/16 09:08:52;;;;;;;33.50;16.13;;;10.10;99.90;;;;;;5021557;28;20013;-80
2023/05/16 09:11:18;;;;;;;27.40;12.75;;;10.20;99.90;;;;;;4996124;28;20031;-80
2023/05/16 09:13:44;;;;;;;30.17;15.00;;;10.10;99.90;;;;;;5020758;28;20045;-77
2023/05/16 09:16:17;;;;;;;30.15;14.98;;;10.20;99.90;;;;;;5022197;28;20034;-78
2023/05/16 09:18:55;;;;;;;32.15;14.88;;;10.00;99.90;;;;;;5011624;28;20030;-81
2023/05/16 09:21:22;;;;;;;31.15;15.60;;;10.00;99.90;;;;;;5017793;28;20023;-81
2023/05/16 09:23:49;;;;;;;30.38;13.25;;;9.90;99.90;;;;;;5017638;28;20013;-81
2023/05/16 09:26:15;;;;;;;32.47;14.98;;;10.00;99.90;;;;;;5000726;28;20065;-81
2023/05/16 09:29:03;;;;;;;33.50;12.75;;;10.00;99.90;;;;;;5004953;28;20023;-78
2023/05/16 09:31:36;;;;;;;27.30;15.18;;;9.90;99.90;;;;;;5004259;28;20031;-79
2023/05/16 09:34:06;;;;;;;25.42;13.73;;;9.90;99.90;;;;;;5003867;28;20053;-78
2023/05/16 09:39:07;;;;;;;26.13;14.43;;;;;;;;;;5483428;23;20034;-80
2023/05/16 09:41:35;;;;;;;30.45;14.15;;;9.90;99.90;;;;;;4994085;28;20041;-80
2023/05/16 09:44:05;;;;;;;33.72;15.48;;;10.00;99.90;;;;;;4989088;28;20022;-81
2023/05/16 09:46:33;;;;;;;25.38;13.23;;;10.10;99.90;;;;;;4999924;28;20015;-79
2023/05/16 09:48:59;;;;;;;31.90;14.73;;;10.10;99.90;;;;;;5002847;28;20026;-79
2023/05/16 09:51:41;;;;;;;22.27;11.98;;;10.10;99.90;;;;;;5002064;28;20010;-81
2023/05/16 09:54:27;;;;;;;28.80;13.90;;;10.10;99.90;;;;;;5018078;28;20082;-81
2023/05/16 09:57:00;;;;;;;41.10;15.10;;;10.00;99.90;;;;;;5001248;28;20022;-79
2023/05/16 09:59:39;;;;;;;29.58;14.60;;;9.90;99.90;;;;;;5001220;28;20018;-79
2023/05/16 10:02:07;;;;;;;30.63;13.75;;;9.90;99.90;;;;;;5003079;28;20022;-81
2023/05/16 10:04:34;;;;;;;28.07;14.00;;;9.90;99.90;;;;;;5001951;28;20030;-79
2023/05/16 10:07:03;;;;;;;32.80;15.32;;;9.90;99.90;;;;;;5002426;28;20094;-78
2023/05/16 10:09:32;;;;;;;27.87;13.63;;;9.90;99.90;;;;;;5003192;28;20010;-82
2023/05/16 10:12:30;;;;;;;31.15;15.20;;;9.90;99.90;;;;;;4998093;28;20030;-82
2023/05/16 10:15:48;;;;;;;40.97;15.57;;;9.90;99.90;;;;;;4962299;29;20016;-79
2023/05/16 10:18:17;;;;;;;39.23;14.37;;;10.00;99.90;;;;;;4943873;29;20091;-79
2023/05/16 10:20:45;;;;;;;26.05;15.13;;;9.90;99.90;;;;;;4992714;28;20026;-79
2023/05/16 10:23:16;;;;;;;33.35;16.38;;;10.00;99.90;;;;;;5003196;28;20021;-80
2023/05/16 10:25:43;;;;;;;28.23;13.90;;;9.90;99.90;;;;;;5002406;28;20041;-80
2023/05/16 10:28:10;;;;;;;30.35;15.68;;;9.90;99.90;;;;;;5018217;28;20085;-81
2023/05/16 10:30:39;;;;;;;30.90;14.60;;;10.00;99.90;;;;;;5019072;28;20010;-79
2023/05/16 10:33:05;;;;;;;29.95;14.80;;;10.00;99.90;;;;;;5003351;28;20003;-79
2023/05/16 10:35:32;;;;;;;26.13;13.93;;;10.00;99.90;;;;;;4999185;28;20023;-80
2023/05/16 10:37:59;;;;;;;32.88;14.10;;;10.10;99.90;;;;;;5012339;28;20018;-80
2023/05/16 10:40:26;;;;;;;28.42;12.63;;;10.20;99.90;;;;;;4997511;28;20090;-78
2023/05/16 10:43:00;;;;;;;38.35;14.93;;;10.20;99.90;;;;;;5003903;28;20033;-79
2023/05/16 10:45:26;;;;;;;29.38;12.98;;;10.20;99.90;;;;;;5018781;28;20035;-79
2023/05/16 10:48:03;;;;;;;28.85;13.65;;;10.20;99.90;;;;;;5002925;28;20021;-79
2023/05/16 10:50:40;;;;;;;24.90;12.75;;;10.20;99.90;;;;;;5002875;28;20014;-79
2023/05/16 10:53:18;;;;;;;26.83;11.95;;;10.20;99.90;;;;;;5003115;28;20027;-78
2023/05/16 10:56:08;;;;;;;21.50;11.13;;;10.10;99.90;;;;;;4980988;28;20050;-79
2023/05/16 10:58:41;;;;;;;24.45;11.65;;;11.20;99.90;;;;;;5011030;28;20026;-79
2023/05/16 11:01:26;;;;;;;25.25;9.98;;;10.00;99.90;;;;;;5003543;28;20026;-81
2023/05/16 11:04:01;;;;;;;27.05;12.02;;;10.10;99.90;;;;;;4997045;28;20026;-79
2023/05/16 11:06:35;;;;;;;20.98;11.07;;;10.10;99.90;;;;;;5003697;28;20104;-78
2023/05/16 11:11:52;;;;;;;25.70;11.80;;;10.10;99.90;;;;;;5009943;28;20022;-79
2023/05/16 11:14:33;;;;;;;22.27;11.48;;;10.10;99.90;;;;;;4987444;28;20033;-81
2023/05/16 11:17:08;;;;;;;22.77;10.85;;;10.10;99.90;;;;;;4977961;28;20504;-79
2023/05/16 11:19:38;;;;;;;21.67;9.80;;;10.10;99.90;;;;;;4980097;28;20023;-80
2023/05/16 11:22:29;;;;;;;15.45;8.15;;;10.00;99.90;;;;;;5002228;28;20014;-81
2023/05/16 11:25:12;;;;;;;20.45;10.02;;;10.00;99.90;;;;;;4992777;28;20038;-79
2023/05/16 11:27:46;;;;;;;17.15;9.00;;;10.10;99.90;;;;;;4981029;28;20379;-79
2023/05/16 11:30:16;;;;;;;21.08;8.20;;;10.20;99.90;;;;;;4979717;28;20023;-80
2023/05/16 11:33:06;;;;;;;21.00;9.75;;;10.10;99.90;;;;;;4996597;28;20094;-79
2023/05/16 11:35:32;;;;;;;17.98;9.30;;;10.10;99.90;;;;;;4994236;28;20027;-81
2023/05/16 11:37:58;;;;;;;17.67;9.52;;;10.20;99.90;;;;;;4993601;28;20038;-79
2023/05/16 11:40:26;;;;;;;17.63;9.15;;;10.10;99.90;;;;;;4976330;28;20007;-79
2023/05/16 11:42:52;;;;;;;14.90;7.80;;;10.20;99.90;;;;;;4973421;28;20018;-81
2023/05/16 11:45:21;;;;;;;15.10;7.68;;;10.20;99.90;;;;;;4996647;28;20274;-80
2023/05/16 11:48:35;;;;;;;12.95;7.55;;;10.20;99.90;;;;;;4982460;28;20027;-80
2023/05/16 11:51:00;;;;;;;8.85;6.40;;;10.20;99.90;;;;;;4975252;28;20031;-79
2023/05/16 11:53:27;;;;;;;11.65;5.72;;;10.30;99.90;;;;;;5028021;23;20078;-79
2023/05/16 11:55:53;;;;;;;8.63;5.00;;;;;;;;;;4972303;28;20108;-79
2023/05/16 11:58:19;;;;;;;10.38;5.70;;;10.40;99.90;;;;;;4958340;28;20038;-79
2023/05/16 12:00:49;;;;;;;13.73;5.93;;;10.40;99.90;;;;;;4975221;28;20025;-79
2023/05/16 12:03:16;;;;;;;12.15;7.03;;;10.40;99.90;;;;;;4961311;28;20507;-81
2023/05/16 12:05:58;;;;;;;14.25;9.02;;;10.40;99.90;;;;;;4993298;28;20025;-80
2023/05/16 12:08:50;;;;;;;16.20;6.82;;;10.40;99.90;;;;;;4993429;28;20039;-81
2023/05/16 12:11:16;;;;;;;13.95;8.25;;;;;;;;;;4992364;28;20002;-80
2023/05/16 12:13:42;;;;;;;14.48;7.05;;;10.30;99.90;;;;;;4978611;28;20030;-80
2023/05/16 12:16:09;;;;;;;7.38;4.97;;;10.30;99.90;;;;;;4965422;28;20082;-79
2023/05/16 12:18:37;;;;;;;9.52;5.63;;;10.20;99.90;;;;;;4962239;28;20038;-81
2023/05/16 12:21:07;;;;;;;8.98;5.03;;;10.20;99.90;;;;;;4955731;28;20031;-78
2023/05/16 12:23:33;;;;;;;9.35;4.97;;;10.10;99.90;;;;;;4972655;28;20496;-79
2023/05/16 12:26:05;;;;;;;11.02;5.72;;;10.20;99.90;;;;;;4953096;28;20042;-78
2023/05/16 12:28:35;;;;;;;9.25;5.65;;;10.20;99.90;;;;;;4955507;28;20023;-79
2023/05/16 12:31:00;;;;;;;;;;;10.10;99.90;;;;;;4972924;28;20527;-79
2023/05/16 12:33:26;;;;;;;8.38;5.35;;;10.10;99.90;;;;;;4952981;28;19950;-79
2023/05/16 12:35:53;;;;;;;8.93;4.57;;;10.10;99.90;;;;;;4953526;28;20029;-79
2023/05/16 12:38:19;;;;;;;8.02;4.72;;;10.10;99.90;;;;;;4952131;28;20231;-78
2023/05/16 12:40:46;;;;;;;8.52;4.82;;;12.60;99.90;;;;;;4969841;28;20023;-78
2023/05/16 12:43:18;;;;;;;11.45;6.18;;;10.10;99.90;;;;;;4969750;28;20027;-79
2023/05/16 12:45:55;;;;;;;10.15;5.18;;;10.10;99.90;;;;;;4969312;28;20078;-78
2023/05/16 12:48:22;;;;;;;6.65;4.70;;;10.20;99.90;;;;;;4952232;28;20220;-78
2023/05/16 12:50:48;;;;;;;13.30;4.57;;;10.20;99.90;;;;;;4952114;28;20117;-79
2023/05/16 12:53:16;;;;;;;16.65;6.22;;;10.10;99.90;;;;;;4969133;28;20053;-78
2023/05/16 12:55:42;;;;;;;18.38;7.30;;;10.10;99.90;;;;;;4952110;28;20227;-79
2023/05/16 12:58:09;;;;;;;17.67;6.25;;;10.10;99.90;;;;;;4970232;28;20022;-80
2023/05/16 13:00:36;;;;;;;12.27;5.97;;;10.20;99.90;;;;;;4954021;28;20023;-78
2023/05/16 13:03:03;;;;;;;6.13;4.85;;;10.20;99.90;;;;;;4970852;28;20027;-79